sensor_id;sensor_type;location;lat;lon;timestamp;pressure;altitude;pressure_sealevel;temperature;humidity
62976;BME280;49071;0.000;0.000;2023-05-24T05:43:52;101204.50;;;21.11;55.84
62976;BME280;49071;0.000;0.000;2023-05-24T05:46:52;101206.31;;;21.11;55.81
62976;BME280;49071;0.000;0.000;2023-05-24T05:49:52;101211.63;;;21.11;55.94
62976;BME280;49071;0.000;0.000;2023-05-24T05:52:52;101209.06;;;21.09;55.89
62976;BME280;49071;0.000;0.000;2023-05-24T05:55:53;101211.81;;;21.08;56.23
62976;BME280;49071;0.000;0.000;2023-05-24T05:58:53;101220.56;;;21.10;55.73
62976;BME280;49071;0.000;0.000;2023-05-24T06:01:53;101226.66;;;21.12;55.67
62976;BME280;49071;0.000;0.000;2023-05-24T06:04:53;101225.56;;;21.16;55.61
62976;BME280;49071;0.000;0.000;2023-05-24T06:07:53;101229.84;;;21.19;55.69
62976;BME280;49071;0.000;0.000;2023-05-24T06:10:54;101227.94;;;21.21;55.71
62976;BME280;49071;0.000;0.000;2023-05-24T06:13:54;101227.94;;;21.21;55.76
62976;BME280;49071;0.000;0.000;2023-05-24T06:16:54;101242.06;;;21.23;55.08
62976;BME280;49071;0.000;0.000;2023-05-24T06:19:55;101231.31;;;21.24;54.81
62976;BME280;49071;0.000;0.000;2023-05-24T06:22:55;101239.13;;;21.27;54.76
62976;BME280;49071;0.000;0.000;2023-05-24T06:25:56;101245.19;;;21.31;54.56
62976;BME280;49071;0.000;0.000;2023-05-24T06:28:56;101245.19;;;21.31;54.77
62976;BME280;49071;0.000;0.000;2023-05-24T06:31:56;101247.75;;;21.32;54.69
62976;BME280;49071;0.000;0.000;2023-05-24T06:34:56;101253.09;;;21.32;54.86
62976;BME280;49071;0.000;0.000;2023-05-24T06:37:56;101247.59;;;21.35;54.76
62976;BME280;49071;0.000;0.000;2023-05-24T06:40:57;101255.66;;;21.34;55.52
62976;BME280;49071;0.000;0.000;2023-05-24T06:43:57;101249.47;;;21.33;55.22
62976;BME280;49071;0.000;0.000;2023-05-24T06:46:57;101255.66;;;21.34;54.93
62976;BME280;49071;0.000;0.000;2023-05-24T06:49:57;101257.44;;;21.33;54.77
62976;BME280;49071;0.000;0.000;2023-05-24T06:52:57;101254.78;;;21.33;54.68
62976;BME280;49071;0.000;0.000;2023-05-24T06:55:58;101256.50;;;21.34;54.77
62976;BME280;49071;0.000;0.000;2023-05-24T06:58:58;101262.69;;;21.35;54.66
62976;BME280;49071;0.000;0.000;2023-05-24T07:01:58;101271.63;;;21.34;54.60
62976;BME280;49071;0.000;0.000;2023-05-24T07:04:58;101274.28;;;21.34;54.45
62976;BME280;49071;0.000;0.000;2023-05-24T07:07:59;101271.72;;;21.32;54.34
62976;BME280;49071;0.000;0.000;2023-05-24T07:10:59;101280.47;;;21.34;54.57
62976;BME280;49071;0.000;0.000;2023-05-24T07:13:59;101280.41;;;21.36;54.38
62976;BME280;49071;0.000;0.000;2023-05-24T07:17:00;101270.69;;;21.35;54.22
62976;BME280;49071;0.000;0.000;2023-05-24T07:20:00;101282.28;;;21.34;53.84
62976;BME280;49071;0.000;0.000;2023-05-24T07:23:01;101281.41;;;21.33;54.09
62976;BME280;49071;0.000;0.000;2023-05-24T07:26:03;101285.03;;;21.32;54.09
62976;BME280;49071;0.000;0.000;2023-05-24T07:29:03;101285.03;;;21.32;54.25
62976;BME280;49071;0.000;0.000;2023-05-24T07:32:03;101283.31;;;21.31;54.08
62976;BME280;49071;0.000;0.000;2023-05-24T07:35:04;101285.13;;;21.31;54.04
62976;BME280;49071;0.000;0.000;2023-05-24T07:38:04;101285.13;;;21.31;54.16
62976;BME280;49071;0.000;0.000;2023-05-24T07:41:06;101284.25;;;21.30;54.16
62976;BME280;49071;0.000;0.000;2023-05-24T07:44:06;101285.19;;;21.29;53.93
62976;BME280;49071;0.000;0.000;2023-05-24T07:47:06;101293.19;;;21.29;54.28
62976;BME280;49071;0.000;0.000;2023-05-24T07:50:06;101295.84;;;21.29;54.15
62976;BME280;49071;0.000;0.000;2023-05-24T07:53:07;101295.91;;;21.28;54.39
62976;BME280;49071;0.000;0.000;2023-05-24T07:56:07;101298.50;;;21.29;54.17
62976;BME280;49071;0.000;0.000;2023-05-24T07:59:08;101306.50;;;21.29;54.65
62976;BME280;49071;0.000;0.000;2023-05-24T08:02:08;101303.91;;;21.28;54.25
62976;BME280;49071;0.000;0.000;2023-05-24T08:05:11;101304.81;;;21.27;54.25
62976;BME280;49071;0.000;0.000;2023-05-24T08:08:11;101307.47;;;21.27;54.15
62976;BME280;49071;0.000;0.000;2023-05-24T08:11:11;101307.56;;;21.25;54.24
62976;BME280;49071;0.000;0.000;2023-05-24T08:14:11;101307.66;;;21.24;54.28
62976;BME280;49071;0.000;0.000;2023-05-24T08:17:12;101313.91;;;21.23;54.20
62976;BME280;49071;0.000;0.000;2023-05-24T08:20:12;101321.03;;;21.22;54.30
62976;BME280;49071;0.000;0.000;2023-05-24T08:23:13;101323.69;;;21.22;54.36
62976;BME280;49071;0.000;0.000;2023-05-24T08:26:13;101315.88;;;21.19;54.44
62976;BME280;49071;0.000;0.000;2023-05-24T08:29:15;101321.19;;;21.19;54.43
62976;BME280;49071;0.000;0.000;2023-05-24T08:32:16;101322.13;;;21.18;54.51
62976;BME280;49071;0.000;0.000;2023-05-24T08:35:16;101326.69;;;21.16;54.52
62976;BME280;49071;0.000;0.000;2023-05-24T08:38:17;101318.69;;;21.16;54.67
62976;BME280;49071;0.000;0.000;2023-05-24T08:41:17;101321.38;;;21.16;54.62
62976;BME280;49071;0.000;0.000;2023-05-24T08:44:17;101324.97;;;21.15;54.51
62976;BME280;49071;0.000;0.000;2023-05-24T08:47:20;101326.69;;;21.16;54.62
62976;BME280;49071;0.000;0.000;2023-05-24T08:50:21;101316.97;;;21.15;54.61
62976;BME280;49071;0.000;0.000;2023-05-24T08:53:21;101322.31;;;21.15;54.42
62976;BME280;49071;0.000;0.000;2023-05-24T08:56:22;101320.56;;;21.14;54.60
62976;BME280;49071;0.000;0.000;2023-05-24T08:59:23;101334.75;;;21.15;54.57
62976;BME280;49071;0.000;0.000;2023-05-24T09:02:24;101328.53;;;21.14;54.34
62976;BME280;49071;0.000;0.000;2023-05-24T09:05:25;101341.78;;;21.16;54.52
62976;BME280;49071;0.000;0.000;2023-05-24T09:08:26;101343.66;;;21.13;54.46
62976;BME280;49071;0.000;0.000;2023-05-24T09:11:27;101342.75;;;21.15;54.46
62976;BME280;49071;0.000;0.000;2023-05-24T09:14:27;101332.16;;;21.13;54.54
62976;BME280;49071;0.000;0.000;2023-05-24T09:17:29;101330.28;;;21.15;54.46
62976;BME280;49071;0.000;0.000;2023-05-24T09:20:30;101332.00;;;21.16;54.51
62976;BME280;49071;0.000;0.000;2023-05-24T09:23:30;101336.47;;;21.16;54.46
62976;BME280;49071;0.000;0.000;2023-05-24T09:26:30;101336.47;;;21.16;54.55
62976;BME280;49071;0.000;0.000;2023-05-24T09:29:34;101340.75;;;21.18;54.46
62976;BME280;49071;0.000;0.000;2023-05-24T09:32:34;101341.63;;;21.19;54.54
62976;BME280;49071;0.000;0.000;2023-05-24T09:35:34;101346.09;;;21.18;54.40
62976;BME280;49071;0.000;0.000;2023-05-24T09:38:35;101357.50;;;21.20;54.56
62976;BME280;49071;0.000;0.000;2023-05-24T09:41:36;101359.22;;;21.21;54.47
62976;BME280;49071;0.000;0.000;2023-05-24T09:44:36;101361.88;;;21.21;54.35
62976;BME280;49071;0.000;0.000;2023-05-24T09:47:37;101352.25;;;21.19;54.28
62976;BME280;49071;0.000;0.000;2023-05-24T09:50:38;101357.75;;;21.16;54.21
62976;BME280;49071;0.000;0.000;2023-05-24T09:53:38;101378.19;;;21.15;54.37
62976;BME280;49071;0.000;0.000;2023-05-24T09:56:43;101369.25;;;21.16;53.89
62976;BME280;49071;0.000;0.000;2023-05-24T09:59:45;101380.78;;;21.17;53.81
62976;BME280;49071;0.000;0.000;2023-05-24T10:02:45;101379.91;;;21.16;53.97
62976;BME280;49071;0.000;0.000;2023-05-24T10:05:45;101375.44;;;21.17;53.69
62976;BME280;49071;0.000;0.000;2023-05-24T10:08:47;101375.44;;;21.17;53.91
62976;BME280;49071;0.000;0.000;2023-05-24T10:11:48;101376.31;;;21.17;53.78
62976;BME280;49071;0.000;0.000;2023-05-24T10:14:48;101383.34;;;21.18;53.54
62976;BME280;49071;0.000;0.000;2023-05-24T10:17:50;101379.75;;;21.19;53.64
62976;BME280;49071;0.000;0.000;2023-05-24T10:20:50;101378.03;;;21.18;53.61
62976;BME280;49071;0.000;0.000;2023-05-24T10:23:54;101381.47;;;21.20;53.74
62976;BME280;49071;0.000;0.000;2023-05-24T10:26:56;101385.06;;;21.19;53.70
62976;BME280;49071;0.000;0.000;2023-05-24T10:33:17;101382.41;;;21.19;53.69
62976;BME280;49071;0.000;0.000;2023-05-24T10:36:18;101383.34;;;21.18;53.77
62976;BME280;49071;0.000;0.000;2023-05-24T10:39:20;101392.09;;;21.20;53.59
62976;BME280;49071;0.000;0.000;2023-05-24T10:42:20;101390.28;;;21.21;53.70
62976;BME280;49071;0.000;0.000;2023-05-24T10:51:28;101395.56;;;21.22;53.58
62976;BME280;49071;0.000;0.000;2023-05-24T10:54:28;101387.59;;;21.22;53.81
62976;BME280;49071;0.000;0.000;2023-05-24T10:57:29;101389.31;;;21.23;53.66
62976;BME280;49071;0.000;0.000;2023-05-24T11:00:33;101390.25;;;21.22;53.74
62976;BME280;49071;0.000;0.000;2023-05-24T11:03:34;101391.97;;;21.23;53.77
62976;BME280;49071;0.000;0.000;2023-05-24T11:06:44;101390.25;;;21.22;53.88
62976;BME280;49071;0.000;0.000;2023-05-24T11:09:47;101388.44;;;21.23;53.88
62976;BME280;49071;0.000;0.000;2023-05-24T11:13:01;101394.72;;;21.22;53.66
62976;BME280;49071;0.000;0.000;2023-05-24T11:16:01;101397.38;;;21.22;53.59
62976;BME280;49071;0.000;0.000;2023-05-24T11:22:18;101391.97;;;21.23;53.80
62976;BME280;49071;0.000;0.000;2023-05-24T11:25:19;101391.09;;;21.23;54.00
62976;BME280;49071;0.000;0.000;2023-05-24T11:28:20;101391.09;;;21.23;53.61
62976;BME280;49071;0.000;0.000;2023-05-24T11:31:25;101390.25;;;21.22;53.91
62976;BME280;49071;0.000;0.000;2023-05-24T11:34:26;101387.59;;;21.22;53.83
62976;BME280;49071;0.000;0.000;2023-05-24T11:37:26;101397.38;;;21.22;53.89
62976;BME280;49071;0.000;0.000;2023-05-24T11:40:26;101391.09;;;21.23;53.83
62976;BME280;49071;0.000;0.000;2023-05-24T11:43:28;101388.50;;;21.21;53.66
62976;BME280;49071;0.000;0.000;2023-05-24T11:46:29;101400.94;;;21.21;53.60
62976;BME280;49071;0.000;0.000;2023-05-24T11:49:29;101393.81;;;21.21;53.79
62976;BME280;49071;0.000;0.000;2023-05-24T11:52:29;101394.72;;;21.22;53.65
62976;BME280;49071;0.000;0.000;2023-05-24T11:55:30;101392.09;;;21.20;53.83
62976;BME280;49071;0.000;0.000;2023-05-24T11:58:45;101392.97;;;21.21;53.72
62976;BME280;49071;0.000;0.000;2023-05-24T12:01:47;101395.63;;;21.21;53.85
62976;BME280;49071;0.000;0.000;2023-05-24T12:04:47;101397.44;;;21.20;53.76
62976;BME280;49071;0.000;0.000;2023-05-24T12:07:47;101400.19;;;21.19;53.71
62976;BME280;49071;0.000;0.000;2023-05-24T12:10:58;101401.03;;;21.19;53.55
62976;BME280;49071;0.000;0.000;2023-05-24T12:13:58;101404.56;;;21.20;53.56
62976;BME280;49071;0.000;0.000;2023-05-24T12:16:59;101409.00;;;21.19;53.57
62976;BME280;49071;0.000;0.000;2023-05-24T12:20:00;101402.84;;;21.19;53.47
62976;BME280;49071;0.000;0.000;2023-05-24T12:23:01;101403.69;;;21.19;53.56
62976;BME280;49071;0.000;0.000;2023-05-24T12:26:01;101399.22;;;21.20;53.54
62976;BME280;49071;0.000;0.000;2023-05-24T12:29:02;101397.44;;;21.20;53.54
62976;BME280;49071;0.000;0.000;2023-05-24T12:32:02;101399.13;;;21.21;53.17
62976;BME280;49071;0.000;0.000;2023-05-24T12:35:03;101396.47;;;21.21;53.36
62976;BME280;49071;0.000;0.000;2023-05-24T12:38:03;101391.09;;;21.23;53.21
62976;BME280;49071;0.000;0.000;2023-05-24T12:41:07;101394.72;;;21.22;52.96
62976;BME280;49071;0.000;0.000;2023-05-24T12:44:12;101397.28;;;21.23;52.95
62976;BME280;49071;0.000;0.000;2023-05-24T12:47:13;101399.94;;;21.23;52.97
62976;BME280;49071;0.000;0.000;2023-05-24T12:50:13;101393.81;;;21.21;53.04
62976;BME280;49071;0.000;0.000;2023-05-24T12:53:15;101394.75;;;21.20;53.00
62976;BME280;49071;0.000;0.000;2023-05-24T12:56:17;101396.47;;;21.21;52.89
62976;BME280;49071;0.000;0.000;2023-05-24T12:59:18;101404.47;;;21.21;53.24
62976;BME280;49071;0.000;0.000;2023-05-24T13:02:18;101407.06;;;21.23;53.07
62976;BME280;49071;0.000;0.000;2023-05-24T13:05:18;101399.13;;;21.21;53.07
62976;BME280;49071;0.000;0.000;2023-05-24T13:08:19;101402.75;;;21.20;53.21
62976;BME280;49071;0.000;0.000;2023-05-24T13:11:19;101408.25;;;21.17;53.32
62976;BME280;49071;0.000;0.000;2023-05-24T13:14:19;101406.53;;;21.16;53.20
62976;BME280;49071;0.000;0.000;2023-05-24T13:17:19;101404.72;;;21.17;53.27
62976;BME280;49071;0.000;0.000;2023-05-24T13:20:20;101405.66;;;21.16;53.02
62976;BME280;49071;0.000;0.000;2023-05-24T13:23:21;101401.19;;;21.16;52.92
62976;BME280;49071;0.000;0.000;2023-05-24T13:26:21;101402.06;;;21.17;52.90
62976;BME280;49071;0.000;0.000;2023-05-24T13:29:23;101398.53;;;21.16;52.98
62976;BME280;49071;0.000;0.000;2023-05-24T13:32:23;101405.50;;;21.19;53.06
62976;BME280;49071;0.000;0.000;2023-05-24T13:35:23;101405.59;;;21.17;52.74
62976;BME280;49071;0.000;0.000;2023-05-24T13:38:24;101402.06;;;21.17;52.91
62976;BME280;49071;0.000;0.000;2023-05-24T13:41:24;101402.91;;;21.17;53.20
62976;BME280;49071;0.000;0.000;2023-05-24T13:44:24;101398.53;;;21.16;52.73
62976;BME280;49071;0.000;0.000;2023-05-24T13:47:25;101400.34;;;21.16;53.13
62976;BME280;49071;0.000;0.000;2023-05-24T13:50:25;101390.56;;;21.16;52.96
62976;BME280;49071;0.000;0.000;2023-05-24T13:53:26;101401.28;;;21.15;53.13
62976;BME280;49071;0.000;0.000;2023-05-24T13:56:27;101395.06;;;21.14;52.97
62976;BME280;49071;0.000;0.000;2023-05-24T13:59:31;101394.22;;;21.13;52.84
62976;BME280;49071;0.000;0.000;2023-05-24T14:02:31;101395.06;;;21.14;52.82
62976;BME280;49071;0.000;0.000;2023-05-24T14:05:31;101387.09;;;21.14;52.94
62976;BME280;49071;0.000;0.000;2023-05-24T14:08:32;101394.22;;;21.13;52.88
62976;BME280;49071;0.000;0.000;2023-05-24T14:11:32;101395.03;;;21.16;52.95
62976;BME280;49071;0.000;0.000;2023-05-24T14:14:33;101395.03;;;21.16;52.95
62976;BME280;49071;0.000;0.000;2023-05-24T14:17:33;101390.69;;;21.13;53.06
62976;BME280;49071;0.000;0.000;2023-05-24T14:20:33;101400.41;;;21.14;53.02
62976;BME280;49071;0.000;0.000;2023-05-24T14:23:36;101397.72;;;21.14;53.21
62976;BME280;49071;0.000;0.000;2023-05-24T14:26:36;101394.22;;;21.13;53.33
62976;BME280;49071;0.000;0.000;2023-05-24T14:29:36;101386.22;;;21.13;53.27
62976;BME280;49071;0.000;0.000;2023-05-24T14:32:37;101397.81;;;21.12;53.27
62976;BME280;49071;0.000;0.000;2023-05-24T14:35:37;101389.84;;;21.12;53.14
62976;BME280;49071;0.000;0.000;2023-05-24T14:38:38;101391.63;;;21.12;53.39
62976;BME280;49071;0.000;0.000;2023-05-24T14:41:38;101391.56;;;21.13;53.34
62976;BME280;49071;0.000;0.000;2023-05-24T14:44:38;101395.16;;;21.12;53.02
62976;BME280;49071;0.000;0.000;2023-05-24T14:47:39;101392.41;;;21.14;52.83
62976;BME280;49071;0.000;0.000;2023-05-24T14:50:39;101380.06;;;21.13;52.82
62976;BME280;49071;0.000;0.000;2023-05-24T14:53:39;101381.00;;;21.12;52.90
62976;BME280;49071;0.000;0.000;2023-05-24T14:56:40;101391.56;;;21.13;53.38
62976;BME280;49071;0.000;0.000;2023-05-24T14:59:40;101398.69;;;21.13;53.26
62976;BME280;49071;0.000;0.000;2023-05-24T15:02:40;101386.31;;;21.12;53.05
62976;BME280;49071;0.000;0.000;2023-05-24T15:05:41;101389.75;;;21.14;52.96
62976;BME280;49071;0.000;0.000;2023-05-24T15:08:41;101393.31;;;21.15;52.89
62976;BME280;49071;0.000;0.000;2023-05-24T15:11:41;101392.41;;;21.14;53.24
62976;BME280;49071;0.000;0.000;2023-05-24T15:14:42;101393.34;;;21.13;52.98
62976;BME280;49071;0.000;0.000;2023-05-24T15:17:42;101397.72;;;21.14;52.96
62976;BME280;49071;0.000;0.000;2023-05-24T15:20:42;101404.00;;;21.13;53.33
62976;BME280;49071;0.000;0.000;2023-05-24T15:23:42;101395.16;;;21.12;53.14
62976;BME280;49071;0.000;0.000;2023-05-24T15:26:42;101388.97;;;21.12;53.14
62976;BME280;49071;0.000;0.000;2023-05-24T15:29:43;101399.63;;;21.12;52.84
62976;BME280;49071;0.000;0.000;2023-05-24T15:32:43;101395.25;;;21.11;53.18
62976;BME280;49071;0.000;0.000;2023-05-24T15:35:45;101395.16;;;21.12;53.14
62976;BME280;49071;0.000;0.000;2023-05-24T15:38:45;101388.97;;;21.12;52.98
62976;BME280;49071;0.000;0.000;2023-05-24T15:41:45;101391.56;;;21.13;53.37
62976;BME280;49071;0.000;0.000;2023-05-24T15:44:46;101402.28;;;21.12;52.96
62976;BME280;49071;0.000;0.000;2023-05-24T15:47:46;101402.19;;;21.13;53.37
62976;BME280;49071;0.000;0.000;2023-05-24T15:50:46;101404.00;;;21.13;52.41
62976;BME280;49071;0.000;0.000;2023-05-24T15:53:46;101398.69;;;21.13;52.86
62976;BME280;49071;0.000;0.000;2023-05-24T15:56:46;101403.06;;;21.14;52.90
62976;BME280;49071;0.000;0.000;2023-05-24T15:59:48;101395.16;;;21.12;53.09
62976;BME280;49071;0.000;0.000;2023-05-24T16:02:48;101397.81;;;21.12;53.18
62976;BME280;49071;0.000;0.000;2023-05-24T16:05:48;101400.47;;;21.12;53.00
62976;BME280;49071;0.000;0.000;2023-05-24T16:08:49;101401.34;;;21.13;52.65
62976;BME280;49071;0.000;0.000;2023-05-24T16:11:49;101392.41;;;21.14;52.49
62976;BME280;49071;0.000;0.000;2023-05-24T16:14:50;101396.03;;;21.13;52.77
62976;BME280;49071;0.000;0.000;2023-05-24T16:17:51;101396.97;;;21.12;52.93
62976;BME280;49071;0.000;0.000;2023-05-24T16:20:51;101391.63;;;21.12;52.84
62976;BME280;49071;0.000;0.000;2023-05-24T16:23:52;101391.63;;;21.12;53.04
62976;BME280;49071;0.000;0.000;2023-05-24T16:26:52;101395.25;;;21.11;52.89
62976;BME280;49071;0.000;0.000;2023-05-24T16:29:52;101397.81;;;21.12;53.08
62976;BME280;49071;0.000;0.000;2023-05-24T16:32:52;101397.91;;;21.11;52.85
62976;BME280;49071;0.000;0.000;2023-05-24T16:35:53;101411.22;;;21.11;52.81
62976;BME280;49071;0.000;0.000;2023-05-24T16:38:56;101404.94;;;21.12;52.84
62976;BME280;49071;0.000;0.000;2023-05-24T16:41:56;101404.94;;;21.12;52.68
62976;BME280;49071;0.000;0.000;2023-05-24T16:44:56;101406.66;;;21.13;52.47
62976;BME280;49071;0.000;0.000;2023-05-24T16:47:56;101406.53;;;21.16;52.32
62976;BME280;49071;0.000;0.000;2023-05-24T16:50:57;101408.16;;;21.19;52.52
62976;BME280;49071;0.000;0.000;2023-05-24T16:53:57;101417.09;;;21.18;52.84
62976;BME280;49071;0.000;0.000;2023-05-24T16:56:57;101418.03;;;21.17;52.59
62976;BME280;49071;0.000;0.000;2023-05-24T16:59:58;101412.53;;;21.20;52.96
62976;BME280;49071;0.000;0.000;2023-05-24T17:02:58;101416.00;;;21.22;52.65
62976;BME280;49071;0.000;0.000;2023-05-24T17:05:59;101416.84;;;21.22;53.01
62976;BME280;49071;0.000;0.000;2023-05-24T17:09:04;101417.63;;;21.24;52.76
62976;BME280;49071;0.000;0.000;2023-05-24T17:12:04;101418.41;;;21.26;52.61
62976;BME280;49071;0.000;0.000;2023-05-24T17:15:05;101414.81;;;21.27;52.81
62976;BME280;49071;0.000;0.000;2023-05-24T17:18:06;101418.41;;;21.26;52.94
62976;BME280;49071;0.000;0.000;2023-05-24T17:21:06;101420.09;;;21.29;52.91
62976;BME280;49071;0.000;0.000;2023-05-24T17:24:06;101420.97;;;21.29;53.25
62976;BME280;49071;0.000;0.000;2023-05-24T17:27:06;101424.53;;;21.28;52.87
62976;BME280;49071;0.000;0.000;2023-05-24T17:30:06;101429.81;;;21.30;52.75
62976;BME280;49071;0.000;0.000;2023-05-24T17:33:07;101432.28;;;21.33;52.83
62976;BME280;49071;0.000;0.000;2023-05-24T17:36:07;101431.53;;;21.31;53.08
62976;BME280;49071;0.000;0.000;2023-05-24T17:39:08;101441.31;;;21.30;52.92
62976;BME280;49071;0.000;0.000;2023-05-24T17:42:08;101441.13;;;21.33;52.74
62976;BME280;49071;0.000;0.000;2023-05-24T17:45:09;101444.66;;;21.34;52.62
62976;BME280;49071;0.000;0.000;2023-05-24T17:48:09;101449.03;;;21.35;52.79
62976;BME280;49071;0.000;0.000;2023-05-24T17:51:09;101447.19;;;21.37;52.51
62976;BME280;49071;0.000;0.000;2023-05-24T17:54:09;101461.44;;;21.36;52.73
62976;BME280;49071;0.000;0.000;2023-05-24T17:57:10;101453.69;;;21.31;52.98
62976;BME280;49071;0.000;0.000;2023-05-24T18:00:10;101456.25;;;21.33;52.76
62976;BME280;49071;0.000;0.000;2023-05-24T18:03:11;101461.44;;;21.36;52.65
62976;BME280;49071;0.000;0.000;2023-05-24T18:06:12;101458.69;;;21.37;52.78
62976;BME280;49071;0.000;0.000;2023-05-24T18:09:12;101460.41;;;21.38;52.96
62976;BME280;49071;0.000;0.000;2023-05-24T18:12:12;101462.31;;;21.36;52.70
62976;BME280;49071;0.000;0.000;2023-05-24T18:15:12;101464.88;;;21.38;52.80
62976;BME280;49071;0.000;0.000;2023-05-24T18:18:12;101470.28;;;21.36;52.89
62976;BME280;49071;0.000;0.000;2023-05-24T18:21:12;101467.63;;;21.36;52.74
62976;BME280;49071;0.000;0.000;2023-05-24T18:24:13;101471.22;;;21.35;52.63
62976;BME280;49071;0.000;0.000;2023-05-24T18:27:13;101472.94;;;21.36;52.81
62976;BME280;49071;0.000;0.000;2023-05-24T18:30:13;101472.94;;;21.36;52.86
62976;BME280;49071;0.000;0.000;2023-05-24T18:33:14;101470.34;;;21.35;52.83
62976;BME280;49071;0.000;0.000;2023-05-24T18:36:14;101477.31;;;21.37;52.70
62976;BME280;49071;0.000;0.000;2023-05-24T18:39:15;101471.06;;;21.38;52.74
62976;BME280;49071;0.000;0.000;2023-05-24T18:42:16;101481.72;;;21.38;52.89
62976;BME280;49071;0.000;0.000;2023-05-24T18:45:16;101483.59;;;21.36;53.03
62976;BME280;49071;0.000;0.000;2023-05-24T18:48:16;101494.38;;;21.33;53.30
62976;BME280;49071;0.000;0.000;2023-05-24T18:51:17;101485.53;;;21.33;53.39
62976;BME280;49071;0.000;0.000;2023-05-24T18:54:17;101499.72;;;21.33;53.22
62976;BME280;49071;0.000;0.000;2023-05-24T18:57:17;101499.63;;;21.35;52.81
62976;BME280;49071;0.000;0.000;2023-05-24T19:00:17;101501.28;;;21.37;52.75
62976;BME280;49071;0.000;0.000;2023-05-24T19:03:21;101498.72;;;21.36;52.80
62976;BME280;49071;0.000;0.000;2023-05-24T19:06:21;101504.09;;;21.34;52.79
62976;BME280;49071;0.000;0.000;2023-05-24T19:09:22;101505.75;;;21.37;52.82
62976;BME280;49071;0.000;0.000;2023-05-24T19:12:22;101510.06;;;21.39;52.75
62976;BME280;49071;0.000;0.000;2023-05-24T19:15:23;101509.97;;;21.41;52.67
62976;BME280;49071;0.000;0.000;2023-05-24T19:18:23;101509.19;;;21.39;52.73
62976;BME280;49071;0.000;0.000;2023-05-24T19:21:24;101510.22;;;21.36;52.76
62976;BME280;49071;0.000;0.000;2023-05-24T19:24:24;101511.09;;;21.37;52.77
62976;BME280;49071;0.000;0.000;2023-05-24T19:27:24;101520.88;;;21.36;52.72
62976;BME280;49071;0.000;0.000;2023-05-24T19:30:26;101522.59;;;21.37;52.66
62976;BME280;49071;0.000;0.000;2023-05-24T19:33:27;101526.03;;;21.39;52.57
62976;BME280;49071;0.000;0.000;2023-05-24T19:36:27;101526.03;;;21.39;52.64
62976;BME280;49071;0.000;0.000;2023-05-24T19:39:28;101528.69;;;21.39;52.39
62976;BME280;49071;0.000;0.000;2023-05-24T19:42:29;101527.91;;;21.37;52.84
62976;BME280;49071;0.000;0.000;2023-05-24T19:45:29;101528.78;;;21.38;52.60
62976;BME280;49071;0.000;0.000;2023-05-24T19:48:29;101532.28;;;21.38;52.89
62976;BME280;49071;0.000;0.000;2023-05-24T19:51:29;101542.16;;;21.36;52.99
